createdAt,value
2024-02-08T00:01:19.152Z,59.15
2024-02-08T00:06:13.656Z,57.13
2024-02-08T00:11:08.349Z,59.20
2024-02-08T00:16:02.798Z,63.25
2024-02-08T00:20:56.833Z,60.60
2024-02-08T00:25:52.232Z,63.42
2024-02-08T00:30:47.361Z,64.18
2024-02-08T00:35:41.993Z,52.72
2024-02-08T00:40:35.481Z,58.67
2024-02-08T00:45:32.385Z,64.60
2024-02-08T00:50:26.480Z,47.72
2024-02-08T00:55:21.317Z,52.85
2024-02-08T01:00:16.786Z,56.97
2024-02-08T01:05:11.349Z,57.10
2024-02-08T01:10:09.839Z,53.33
2024-02-08T01:15:04.597Z,49.03
2024-02-08T01:20:03.270Z,46.67
2024-02-08T01:24:56.835Z,49.55
2024-02-08T01:29:52.209Z,54.20
2024-02-08T01:34:49.187Z,46.92
2024-02-08T01:40:02.591Z,45.03
2024-02-08T01:50:11.598Z,41.95
2024-02-08T01:55:07.807Z,43.50
2024-02-08T02:00:01.978Z,46.40
2024-02-08T02:05:04.940Z,41.05
2024-02-08T02:09:59.659Z,41.38
2024-02-08T02:14:55.177Z,43.92
2024-02-08T02:19:49.770Z,40.08
2024-02-08T02:24:43.492Z,46.20
2024-02-08T02:29:40.299Z,57.55
2024-02-08T02:34:36.610Z,48.00
2024-02-08T02:39:32.964Z,53.13
2024-02-08T02:44:28.913Z,53.08
2024-02-08T02:49:25.237Z,52.35
2024-02-08T02:54:21.175Z,46.30
2024-02-08T02:59:18.202Z,47.35
2024-02-08T03:04:12.092Z,42.30
2024-02-08T03:09:07.387Z,42.17
2024-02-08T03:14:01.839Z,41.22
2024-02-08T03:18:59.030Z,45.15
2024-02-08T03:23:53.315Z,47.45
2024-02-08T03:28:48.138Z,41.00
2024-02-08T03:33:45.557Z,38.55
2024-02-08T03:38:41.061Z,38.25
2024-02-08T03:43:35.314Z,31.75
2024-02-08T03:48:30.967Z,34.42
2024-02-08T03:53:26.667Z,32.53
2024-02-08T03:58:25.577Z,32.13
2024-02-08T04:03:39.755Z,33.28
2024-02-08T04:14:03.414Z,32.00
2024-02-08T04:19:16.492Z,34.53
2024-02-08T04:24:28.528Z,29.55
2024-02-08T04:29:44.818Z,31.58
2024-02-08T04:35:00.743Z,28.65
2024-02-08T04:40:13.581Z,32.83
2024-02-08T04:45:27.632Z,27.60
2024-02-08T04:50:39.901Z,28.30
2024-02-08T04:55:33.834Z,31.23
2024-02-08T05:05:23.025Z,32.38
2024-02-08T05:10:20.331Z,32.30
2024-02-08T05:15:15.799Z,27.40
2024-02-08T05:20:13.472Z,33.08
2024-02-08T05:25:12.190Z,38.95
2024-02-08T05:30:08.409Z,43.75
2024-02-08T05:35:04.424Z,35.97
2024-02-08T05:39:58.713Z,27.35
2024-02-08T05:45:02.850Z,31.67
2024-02-08T05:49:56.851Z,32.78
2024-02-08T05:54:54.280Z,33.30
2024-02-08T05:59:52.434Z,33.72
2024-02-08T06:04:53.094Z,39.63
2024-02-08T06:09:47.578Z,35.92
2024-02-08T06:14:44.190Z,37.33
2024-02-08T06:19:52.885Z,30.10
2024-02-08T06:24:50.707Z,44.38
2024-02-08T06:29:44.828Z,36.92
2024-02-08T06:34:47.521Z,34.28
2024-02-08T06:39:46.908Z,42.20
2024-02-08T06:44:55.059Z,41.40
2024-02-08T06:50:08.503Z,33.35
2024-02-08T06:55:21.534Z,31.20
2024-02-08T07:00:36.629Z,44.67
2024-02-08T07:05:49.234Z,44.08
2024-02-08T07:11:01.460Z,42.55
2024-02-08T07:16:15.623Z,47.10
2024-02-08T07:21:29.729Z,48.72
2024-02-08T07:26:42.266Z,49.75
2024-02-08T07:31:54.512Z,53.88
2024-02-08T07:37:07.378Z,46.40
2024-02-08T07:42:01.925Z,55.03
2024-02-08T07:47:13.960Z,49.70
2024-02-08T07:52:16.604Z,47.67
2024-02-08T07:57:13.571Z,55.13
2024-02-08T08:02:14.098Z,54.95
2024-02-08T08:07:28.013Z,57.90
2024-02-08T08:12:25.290Z,62.42
2024-02-08T08:17:33.356Z,54.42
2024-02-08T08:22:27.306Z,67.10
2024-02-08T08:27:35.531Z,56.25
2024-02-08T08:32:33.799Z,49.53
2024-02-08T08:37:41.993Z,44.42
2024-02-08T08:42:36.109Z,40.90
2024-02-08T08:47:30.391Z,46.55
2024-02-08T08:52:27.263Z,46.13
2024-02-08T08:57:27.006Z,45.30
2024-02-08T09:02:24.471Z,39.40
2024-02-08T09:07:18.834Z,43.50
2024-02-08T09:12:13.546Z,36.88
2024-02-08T09:17:24.313Z,35.13
2024-02-08T09:22:20.568Z,35.88
2024-02-08T09:27:18.275Z,45.08
2024-02-08T09:32:32.564Z,46.08
2024-02-08T09:37:35.254Z,52.17
2024-02-08T09:42:29.536Z,45.80
2024-02-08T09:47:27.966Z,40.50
2024-02-08T09:52:26.721Z,39.40
2024-02-08T09:57:24.357Z,36.63
2024-02-08T10:02:35.565Z,37.95
2024-02-08T10:07:36.783Z,36.90
2024-02-08T10:12:42.932Z,33.28
2024-02-08T10:17:44.799Z,36.92
2024-02-08T10:22:44.743Z,32.78
2024-02-08T10:27:39.911Z,36.25
2024-02-08T10:32:34.927Z,32.05
2024-02-08T10:37:47.576Z,32.63
2024-02-08T10:42:47.078Z,33.07
2024-02-08T10:47:43.091Z,30.88
2024-02-08T10:52:38.313Z,28.58
2024-02-08T10:57:38.163Z,28.10
2024-02-08T11:02:37.427Z,28.95
2024-02-08T11:07:35.941Z,30.38
2024-02-08T11:12:32.011Z,30.58
2024-02-08T11:17:28.632Z,30.63
2024-02-08T11:22:41.810Z,30.20
2024-02-08T11:27:36.755Z,24.38
2024-02-08T11:32:33.321Z,32.70
2024-02-08T11:37:33.069Z,26.52
2024-02-08T11:42:33.966Z,29.42
2024-02-08T11:47:27.896Z,27.00
2024-02-08T11:52:21.972Z,26.80
2024-02-08T11:57:21.784Z,28.42
2024-02-08T12:02:18.694Z,28.05
2024-02-08T12:07:16.373Z,27.08
2024-02-08T12:12:11.209Z,27.55
2024-02-08T12:17:08.386Z,27.80
2024-02-08T12:22:06.738Z,30.02
2024-02-08T12:27:27.105Z,31.90
2024-02-08T12:32:20.862Z,30.50
2024-02-08T12:37:15.204Z,23.67
2024-02-08T12:42:10.082Z,30.13
2024-02-08T12:47:03.737Z,27.13
2024-02-08T12:52:01.260Z,26.27
2024-02-08T12:57:09.581Z,28.08
2024-02-08T13:02:10.513Z,25.33
2024-02-08T13:07:06.067Z,35.65
2024-02-08T13:12:25.843Z,32.92
2024-02-08T13:17:40.199Z,30.85
2024-02-08T13:28:38.110Z,28.30
2024-02-08T13:33:40.516Z,30.92
2024-02-08T13:49:27.513Z,27.38
2024-02-08T13:54:36.049Z,31.40
2024-02-08T13:59:40.963Z,33.67
2024-02-08T14:04:35.451Z,27.45
2024-02-08T14:09:32.328Z,32.05
2024-02-08T14:14:33.460Z,30.80
2024-02-08T14:19:35.998Z,31.83
2024-02-08T14:24:37.831Z,42.90
2024-02-08T14:29:33.295Z,33.25
2024-02-08T14:34:28.646Z,28.85
2024-02-08T14:39:30.612Z,31.63
2024-02-08T14:44:33.592Z,27.88
2024-02-08T14:49:31.929Z,31.10
2024-02-08T14:54:59.236Z,33.60
2024-02-08T15:00:22.552Z,36.78
2024-02-08T15:05:21.896Z,36.30
2024-02-08T15:10:23.205Z,32.13
2024-02-08T15:15:32.541Z,37.15
2024-02-08T15:20:45.282Z,35.67
2024-02-08T15:25:51.460Z,37.67
2024-02-08T15:30:55.070Z,29.27
2024-02-08T15:36:01.670Z,34.17
2024-02-08T15:41:08.900Z,35.30
2024-02-08T15:46:05.927Z,36.78
2024-02-08T15:51:08.230Z,40.00
2024-02-08T15:56:02.807Z,33.83
2024-02-08T16:01:16.023Z,40.30
2024-02-08T16:06:29.985Z,40.42
2024-02-08T16:11:25.713Z,41.15
2024-02-08T16:16:20.745Z,41.75
2024-02-08T16:21:27.096Z,36.42
2024-02-08T16:26:20.971Z,42.60
2024-02-08T16:31:18.742Z,45.45
2024-02-08T16:36:33.152Z,40.03
2024-02-08T16:41:33.272Z,43.40
2024-02-08T16:46:37.574Z,43.33
2024-02-08T16:51:39.718Z,37.42
2024-02-08T16:56:41.530Z,44.55
2024-02-08T17:01:42.540Z,42.95
2024-02-08T17:06:52.249Z,40.78
2024-02-08T17:11:47.256Z,37.60
2024-02-08T17:16:49.910Z,44.08
2024-02-08T17:21:57.354Z,51.00
2024-02-08T17:27:20.651Z,59.53
2024-02-08T17:32:15.654Z,57.08
2024-02-08T17:37:15.322Z,47.35
2024-02-08T17:42:11.171Z,50.42
2024-02-08T17:47:30.493Z,56.17
2024-02-08T17:52:25.446Z,61.88
2024-02-08T17:57:44.342Z,54.80
2024-02-08T18:02:41.206Z,53.50
2024-02-08T18:07:38.364Z,71.15
2024-02-08T18:12:43.367Z,88.15
2024-02-08T18:17:38.240Z,59.00
2024-02-08T18:22:33.350Z,56.20
2024-02-08T18:27:34.963Z,59.33
2024-02-08T18:32:31.447Z,55.05
2024-02-08T18:37:28.504Z,58.88
2024-02-08T18:42:29.147Z,51.80
2024-02-08T18:47:23.090Z,58.38
2024-02-08T18:52:20.099Z,71.68
2024-02-08T18:57:14.101Z,93.45
2024-02-08T19:02:10.545Z,72.15
2024-02-08T19:07:07.172Z,73.28
2024-02-08T19:12:01.984Z,74.35
2024-02-08T19:16:55.887Z,73.63
2024-02-08T19:21:50.945Z,73.35
2024-02-08T19:27:05.308Z,66.60
2024-02-08T19:32:00.359Z,76.00
2024-02-08T19:36:55.112Z,70.05
2024-02-08T19:41:57.320Z,67.65
2024-02-08T19:47:03.858Z,67.20
2024-02-08T19:52:08.508Z,73.55
2024-02-08T19:57:04.600Z,84.47
2024-02-08T20:01:59.599Z,67.07
2024-02-08T20:06:56.996Z,67.90
2024-02-08T20:11:53.795Z,54.83
2024-02-08T20:16:49.114Z,58.85
2024-02-08T20:21:45.267Z,65.70
2024-02-08T20:26:39.691Z,59.47
2024-02-08T20:31:34.131Z,58.58
2024-02-08T20:36:28.849Z,56.53
2024-02-08T20:41:28.179Z,65.68
2024-02-08T20:46:23.226Z,59.85
2024-02-08T20:51:17.848Z,60.55
2024-02-08T20:56:12.559Z,63.03
2024-02-08T21:01:12.412Z,62.42
2024-02-08T21:06:09.929Z,66.65
2024-02-08T21:11:04.432Z,74.93
2024-02-08T21:15:59.455Z,74.43
2024-02-08T21:21:01.728Z,77.60
2024-02-08T21:25:57.007Z,82.47
2024-02-08T21:30:51.881Z,78.60
2024-02-08T21:35:49.903Z,74.93
2024-02-08T21:40:48.036Z,74.60
2024-02-08T21:45:48.787Z,76.50
2024-02-08T21:50:51.119Z,78.00
2024-02-08T21:55:45.236Z,80.38
2024-02-08T22:06:22.595Z,87.13
2024-02-08T22:11:20.007Z,85.78
2024-02-08T22:16:22.976Z,81.28
2024-02-08T22:21:18.789Z,85.03
2024-02-08T22:26:14.442Z,86.63
2024-02-08T22:31:12.828Z,87.05
2024-02-08T22:36:09.154Z,86.93
2024-02-08T22:41:03.560Z,86.32
2024-02-08T22:45:58.068Z,81.95
2024-02-08T22:50:53.250Z,83.70
2024-02-08T22:55:49.245Z,84.55
2024-02-08T23:00:52.456Z,86.60
2024-02-08T23:05:56.497Z,83.53
2024-02-08T23:10:51.437Z,85.88
2024-02-08T23:15:49.691Z,84.95
2024-02-08T23:20:45.487Z,91.20
2024-02-08T23:25:41.471Z,85.75
2024-02-08T23:30:35.716Z,84.95
2024-02-08T23:35:31.241Z,82.82
2024-02-08T23:40:28.767Z,83.97
2024-02-08T23:45:28.500Z,89.63
2024-02-08T23:50:26.138Z,75.07
2024-02-08T23:55:25.042Z,76.05
